createdAt,value
2018-07-31T00:03:00.862Z,19.80
2018-07-31T00:07:58.936Z,19.70
2018-07-31T00:10:28.269Z,19.70
2018-07-31T00:12:57.545Z,19.60
2018-07-31T00:15:26.803Z,19.60
2018-07-31T00:17:56.040Z,19.60
2018-07-31T00:20:25.255Z,19.60
2018-07-31T00:22:54.411Z,19.60
2018-07-31T00:25:49.818Z,19.50
2018-07-31T00:28:18.991Z,19.50
2018-07-31T00:30:48.144Z,19.50
2018-07-31T00:33:17.321Z,19.50
2018-07-31T00:35:46.489Z,19.40
2018-07-31T00:38:15.634Z,19.40
2018-07-31T00:40:44.815Z,19.40
2018-07-31T00:43:13.934Z,19.30
2018-07-31T00:45:43.098Z,19.20
2018-07-31T00:48:12.323Z,19.20
2018-07-31T00:50:41.526Z,19.10
2018-07-31T00:53:10.727Z,19.20
2018-07-31T00:55:40.041Z,19.10
2018-07-31T00:58:09.370Z,19.10
2018-07-31T01:00:38.592Z,19.10
2018-07-31T01:03:08.146Z,19.10
2018-07-31T01:08:06.023Z,19.10
2018-07-31T01:10:35.165Z,19.10
2018-07-31T01:13:04.346Z,19.10
2018-07-31T01:15:33.557Z,19.00
2018-07-31T01:18:09.299Z,19.00
2018-07-31T01:20:38.587Z,19.00
2018-07-31T01:25:36.436Z,18.90
2018-07-31T01:28:05.647Z,18.90
2018-07-31T01:30:34.811Z,18.90
2018-07-31T01:33:03.997Z,18.80
2018-07-31T01:35:33.187Z,18.80
2018-07-31T01:38:02.394Z,18.80
2018-07-31T01:40:31.595Z,18.70
2018-07-31T01:43:00.759Z,18.70
2018-07-31T01:50:27.249Z,18.60
2018-07-31T01:52:56.519Z,18.60
2018-07-31T01:57:54.314Z,18.60
2018-07-31T02:05:20.726Z,18.60
2018-07-31T02:07:49.875Z,18.50
2018-07-31T02:12:48.008Z,18.50
2018-07-31T02:15:17.262Z,18.50
2018-07-31T02:17:46.397Z,18.50
2018-07-31T02:20:15.676Z,18.40
2018-07-31T02:22:44.927Z,18.40
2018-07-31T02:25:14.214Z,18.40
2018-07-31T02:27:43.488Z,18.40
2018-07-31T02:30:27.973Z,18.40
2018-07-31T02:32:57.216Z,18.40
2018-07-31T02:37:55.298Z,18.40
2018-07-31T02:42:53.389Z,18.30
2018-07-31T02:45:22.667Z,18.30
2018-07-31T02:47:51.957Z,18.30
2018-07-31T02:50:21.470Z,18.30
2018-07-31T02:52:50.684Z,18.20
2018-07-31T02:55:19.946Z,18.10
2018-07-31T02:57:49.209Z,18.20
2018-07-31T03:00:18.491Z,18.10
2018-07-31T03:05:16.469Z,18.20
2018-07-31T03:07:45.719Z,18.10
2018-07-31T03:10:15.023Z,18.10
2018-07-31T03:12:44.290Z,18.20
2018-07-31T03:15:13.538Z,18.10
2018-07-31T03:17:42.838Z,18.20
2018-07-31T03:20:12.070Z,18.10
2018-07-31T03:22:41.398Z,18.10
2018-07-31T03:25:10.664Z,18.10
2018-07-31T03:27:39.960Z,18.00
2018-07-31T03:30:09.253Z,18.00
2018-07-31T03:32:38.616Z,18.00
2018-07-31T03:35:08.110Z,18.00
2018-07-31T03:37:37.412Z,18.00
2018-07-31T03:40:06.867Z,18.00
2018-07-31T03:42:36.166Z,18.00
2018-07-31T03:45:06.104Z,18.00
2018-07-31T03:52:32.855Z,18.00
2018-07-31T03:55:02.101Z,18.00
2018-07-31T03:57:31.352Z,18.10
2018-07-31T04:00:00.571Z,18.10
2018-07-31T04:02:29.820Z,18.10
2018-07-31T04:04:59.046Z,18.10
2018-07-31T04:07:29.192Z,18.10
2018-07-31T04:09:58.421Z,18.10
2018-07-31T04:12:27.676Z,18.10
2018-07-31T04:14:56.900Z,18.10
2018-07-31T04:17:26.170Z,18.10
2018-07-31T04:19:55.453Z,18.10
2018-07-31T04:22:24.782Z,18.00
2018-07-31T04:24:54.005Z,18.00
2018-07-31T04:27:23.230Z,18.00
2018-07-31T04:29:52.404Z,18.00
2018-07-31T04:34:50.524Z,18.00
2018-07-31T04:37:19.716Z,18.10
2018-07-31T04:39:48.904Z,18.10
2018-07-31T04:42:18.211Z,18.10
2018-07-31T04:44:47.391Z,18.20
2018-07-31T04:47:16.692Z,18.20
2018-07-31T04:49:45.972Z,18.20
2018-07-31T04:52:15.199Z,18.20
2018-07-31T04:54:44.409Z,18.30
2018-07-31T04:57:13.615Z,18.30
2018-07-31T04:59:42.790Z,18.30
2018-07-31T05:02:12.061Z,18.30
2018-07-31T05:04:41.289Z,18.30
2018-07-31T05:07:10.512Z,18.40
2018-07-31T05:09:39.651Z,18.40
2018-07-31T05:12:08.919Z,18.40
2018-07-31T05:14:38.051Z,18.40
2018-07-31T05:17:07.299Z,18.50
2018-07-31T05:19:36.550Z,18.50
2018-07-31T05:22:05.936Z,18.50
2018-07-31T05:24:35.120Z,18.60
2018-07-31T05:27:04.344Z,18.60
2018-07-31T05:29:33.551Z,18.70
2018-07-31T05:32:02.722Z,18.70
2018-07-31T05:34:31.995Z,18.80
2018-07-31T05:37:01.276Z,18.80
2018-07-31T05:39:30.517Z,18.90
2018-07-31T05:41:59.721Z,18.90
2018-07-31T05:44:29.026Z,19.00
2018-07-31T05:46:58.183Z,19.00
2018-07-31T05:49:27.366Z,19.10
2018-07-31T05:51:56.664Z,19.10
2018-07-31T05:54:25.824Z,19.20
2018-07-31T05:56:55.072Z,19.30
2018-07-31T05:59:24.338Z,19.30
2018-07-31T06:04:22.316Z,19.40
2018-07-31T06:06:51.715Z,19.50
2018-07-31T06:09:20.955Z,19.50
2018-07-31T06:11:50.193Z,19.60
2018-07-31T06:14:19.434Z,19.70
2018-07-31T06:16:48.701Z,19.80
2018-07-31T06:19:17.957Z,19.90
2018-07-31T06:21:47.141Z,20.00
2018-07-31T06:24:16.439Z,20.10
2018-07-31T06:26:45.685Z,20.20
2018-07-31T06:29:14.866Z,20.30
2018-07-31T06:31:44.076Z,20.40
2018-07-31T06:34:13.340Z,20.50
2018-07-31T06:36:42.582Z,20.60
2018-07-31T06:39:11.826Z,20.70
2018-07-31T06:41:41.119Z,20.90
2018-07-31T06:44:10.371Z,21.00
2018-07-31T06:46:39.666Z,21.10
2018-07-31T06:49:09.227Z,21.20
2018-07-31T06:51:38.527Z,21.40
2018-07-31T06:54:07.828Z,21.60
2018-07-31T06:56:37.225Z,21.80
2018-07-31T06:59:06.486Z,22.10
2018-07-31T07:01:35.707Z,22.40
2018-07-31T07:04:05.107Z,22.60
2018-07-31T07:06:34.446Z,22.90
2018-07-31T07:09:05.176Z,23.20
2018-07-31T07:11:34.572Z,23.40
2018-07-31T07:14:03.722Z,23.60
2018-07-31T07:16:33.191Z,23.80
2018-07-31T07:19:02.460Z,24.10
2018-07-31T07:21:31.707Z,24.30
2018-07-31T07:24:00.961Z,24.50
2018-07-31T07:26:30.247Z,24.70
2018-07-31T07:28:59.566Z,24.90
2018-07-31T07:31:28.856Z,25.10
2018-07-31T07:33:58.282Z,25.30
2018-07-31T07:36:27.465Z,25.60
2018-07-31T07:38:56.629Z,25.80
2018-07-31T07:41:25.860Z,26.00
2018-07-31T07:43:55.192Z,26.10
2018-07-31T07:46:24.392Z,26.30
2018-07-31T07:48:53.679Z,26.50
2018-07-31T07:51:22.886Z,26.70
2018-07-31T07:53:52.135Z,26.80
2018-07-31T07:56:21.357Z,27.10
2018-07-31T07:58:50.554Z,27.30
2018-07-31T08:01:19.776Z,27.50
2018-07-31T08:03:48.893Z,27.70
2018-07-31T08:06:18.185Z,27.90
2018-07-31T08:08:47.410Z,28.10
2018-07-31T08:11:16.684Z,28.30
2018-07-31T08:13:45.997Z,28.50
2018-07-31T08:16:15.185Z,28.60
2018-07-31T08:18:50.148Z,28.90
2018-07-31T08:21:19.454Z,29.10
2018-07-31T08:23:48.755Z,29.40
2018-07-31T08:26:17.996Z,29.50
2018-07-31T08:28:47.183Z,29.40
2018-07-31T08:31:16.410Z,29.50
2018-07-31T08:33:45.711Z,29.60
2018-07-31T08:36:14.899Z,29.70
2018-07-31T08:38:44.108Z,30.00
2018-07-31T08:41:13.438Z,30.20
2018-07-31T08:43:42.727Z,30.10
2018-07-31T08:46:12.108Z,30.10
2018-07-31T08:48:41.356Z,30.30
2018-07-31T08:51:10.605Z,30.40
2018-07-31T08:53:39.795Z,30.60
2018-07-31T08:56:09.055Z,30.60
2018-07-31T08:58:38.329Z,30.40
2018-07-31T09:01:07.510Z,30.50
2018-07-31T09:03:36.911Z,30.90
2018-07-31T09:06:06.520Z,31.30
2018-07-31T09:08:35.813Z,31.40
2018-07-31T09:11:04.994Z,31.60
2018-07-31T09:13:34.272Z,31.80
2018-07-31T09:16:03.392Z,31.90
2018-07-31T09:18:32.646Z,32.00
2018-07-31T09:21:01.802Z,32.00
2018-07-31T09:23:30.985Z,32.00
2018-07-31T09:26:00.712Z,32.30
2018-07-31T09:28:30.061Z,32.40
2018-07-31T09:33:33.308Z,32.40
2018-07-31T09:36:02.390Z,32.30
2018-07-31T09:38:31.606Z,32.40
2018-07-31T09:41:00.663Z,32.50
2018-07-31T09:43:29.991Z,32.40
2018-07-31T09:45:59.332Z,32.50
2018-07-31T09:48:28.510Z,32.80
2018-07-31T09:50:57.756Z,32.90
2018-07-31T09:53:26.907Z,33.10
2018-07-31T09:55:56.005Z,33.20
2018-07-31T09:58:25.405Z,33.10
2018-07-31T10:00:59.669Z,33.20
2018-07-31T10:03:28.810Z,33.20
2018-07-31T10:05:58.055Z,33.30
2018-07-31T10:08:27.192Z,33.30
2018-07-31T10:10:56.530Z,33.50
2018-07-31T10:13:25.617Z,33.50
2018-07-31T10:15:54.831Z,33.70
2018-07-31T10:18:23.949Z,33.80
2018-07-31T10:20:53.229Z,34.00
2018-07-31T10:23:22.385Z,34.10
2018-07-31T10:25:51.525Z,34.10
2018-07-31T10:28:20.724Z,34.30
2018-07-31T10:30:50.001Z,34.60
2018-07-31T10:33:19.104Z,35.00
2018-07-31T10:35:48.231Z,35.10
2018-07-31T10:38:17.381Z,35.20
2018-07-31T10:40:46.608Z,35.00
2018-07-31T10:43:15.792Z,34.80
2018-07-31T10:45:44.900Z,34.80
2018-07-31T10:48:14.055Z,34.90
2018-07-31T10:50:43.322Z,35.20
2018-07-31T10:53:12.472Z,35.30
2018-07-31T10:55:41.592Z,35.40
2018-07-31T10:58:10.952Z,35.50
2018-07-31T11:00:40.056Z,35.60
2018-07-31T11:03:09.288Z,35.20
2018-07-31T11:05:38.416Z,34.70
2018-07-31T11:08:07.781Z,34.60
2018-07-31T11:10:37.078Z,34.70
2018-07-31T11:13:06.348Z,35.00
2018-07-31T11:15:35.486Z,35.40
2018-07-31T11:18:04.661Z,35.40
2018-07-31T11:20:33.990Z,35.70
2018-07-31T11:23:03.183Z,36.00
2018-07-31T11:25:32.370Z,35.90
2018-07-31T11:28:01.533Z,36.10
2018-07-31T11:30:30.695Z,36.40
2018-07-31T11:32:59.983Z,36.70
2018-07-31T11:35:29.142Z,37.00
2018-07-31T11:37:58.400Z,37.10
2018-07-31T11:40:27.575Z,37.10
2018-07-31T11:42:56.835Z,37.30
2018-07-31T11:45:26.016Z,37.30
2018-07-31T11:47:55.291Z,37.30
2018-07-31T11:50:24.513Z,37.30
2018-07-31T11:52:53.745Z,37.20
2018-07-31T11:55:23.101Z,37.00
2018-07-31T11:57:52.309Z,37.00
2018-07-31T12:00:21.561Z,37.10
2018-07-31T12:02:50.755Z,36.90
2018-07-31T12:05:19.963Z,36.70
2018-07-31T12:10:17.885Z,37.00
2018-07-31T12:15:15.789Z,37.20
2018-07-31T12:17:45.012Z,37.10
2018-07-31T12:20:14.188Z,37.20
2018-07-31T12:22:43.437Z,37.50
2018-07-31T12:25:12.631Z,37.80
2018-07-31T12:27:41.866Z,37.50
2018-07-31T12:30:11.888Z,37.40
2018-07-31T12:35:11.023Z,37.00
2018-07-31T12:37:40.217Z,37.00
2018-07-31T12:42:38.080Z,37.10
2018-07-31T12:45:07.409Z,37.30
2018-07-31T12:47:36.558Z,37.30
2018-07-31T12:50:05.979Z,37.30
2018-07-31T12:52:35.134Z,37.60
2018-07-31T12:55:04.450Z,37.70
2018-07-31T12:57:33.644Z,37.60
2018-07-31T13:00:02.971Z,37.70
2018-07-31T13:02:32.254Z,37.90
2018-07-31T13:05:01.342Z,38.30
2018-07-31T13:07:30.581Z,38.50
2018-07-31T13:09:59.858Z,38.10
2018-07-31T13:12:29.039Z,38.00
2018-07-31T13:14:58.205Z,38.00
2018-07-31T13:17:27.390Z,38.20
2018-07-31T13:19:56.715Z,38.50
2018-07-31T13:22:25.861Z,38.50
2018-07-31T13:24:55.052Z,38.70
2018-07-31T13:27:24.196Z,38.90
2018-07-31T13:29:53.593Z,39.60
2018-07-31T13:32:22.810Z,40.10
2018-07-31T13:34:52.036Z,40.50
2018-07-31T13:37:21.196Z,41.20
2018-07-31T13:39:50.624Z,41.80
2018-07-31T13:42:19.833Z,42.40
2018-07-31T13:44:49.006Z,43.00
2018-07-31T13:47:18.272Z,43.50
2018-07-31T13:49:47.436Z,43.80
2018-07-31T13:52:16.646Z,43.80
2018-07-31T13:54:45.876Z,43.40
2018-07-31T13:57:14.963Z,43.40
2018-07-31T13:59:44.161Z,42.90
2018-07-31T14:02:13.350Z,42.90
2018-07-31T14:04:42.475Z,43.20
2018-07-31T14:07:11.772Z,42.90
2018-07-31T14:09:40.932Z,43.20
2018-07-31T14:12:10.115Z,43.20
2018-07-31T14:14:39.253Z,43.40
2018-07-31T14:17:08.528Z,43.50
2018-07-31T14:19:37.675Z,43.90
2018-07-31T14:22:07.005Z,44.50
2018-07-31T14:24:36.235Z,45.00
2018-07-31T14:27:05.492Z,45.20
2018-07-31T14:29:34.698Z,45.00
2018-07-31T14:32:03.910Z,44.60
2018-07-31T14:34:33.119Z,44.90
2018-07-31T14:37:02.316Z,45.10
2018-07-31T14:39:31.882Z,45.50
2018-07-31T14:42:01.050Z,45.10
2018-07-31T14:44:30.332Z,44.90
2018-07-31T14:46:59.637Z,45.20
2018-07-31T14:49:28.777Z,45.60
2018-07-31T14:51:58.036Z,46.10
2018-07-31T14:54:27.303Z,46.40
2018-07-31T14:56:56.661Z,46.60
2018-07-31T14:59:25.915Z,46.10
2018-07-31T15:01:55.064Z,45.90
2018-07-31T15:04:24.274Z,45.70
2018-07-31T15:06:53.460Z,45.60
2018-07-31T15:09:22.606Z,46.00
2018-07-31T15:11:58.116Z,45.30
2018-07-31T15:14:27.468Z,45.30
2018-07-31T15:16:56.671Z,45.10
2018-07-31T15:19:25.903Z,44.70
2018-07-31T15:21:55.003Z,44.80
2018-07-31T15:24:24.241Z,44.80
2018-07-31T15:26:53.487Z,45.00
2018-07-31T15:29:22.653Z,44.80
2018-07-31T15:31:52.495Z,44.50
2018-07-31T15:34:21.677Z,44.50
2018-07-31T15:36:50.899Z,44.80
2018-07-31T15:39:20.137Z,44.90
2018-07-31T15:41:49.372Z,44.90
2018-07-31T15:44:18.624Z,45.20
2018-07-31T15:46:47.939Z,45.30
2018-07-31T15:49:17.160Z,45.40
2018-07-31T15:51:46.420Z,45.50
2018-07-31T15:54:15.740Z,45.20
2018-07-31T15:56:45.027Z,45.20
2018-07-31T15:59:14.335Z,44.80
2018-07-31T16:01:43.686Z,44.60
2018-07-31T16:04:12.956Z,44.60
2018-07-31T16:06:42.268Z,44.50
2018-07-31T16:09:12.476Z,43.90
2018-07-31T16:11:41.853Z,43.30
2018-07-31T16:14:11.002Z,42.00
2018-07-31T16:16:40.184Z,40.70
2018-07-31T16:19:09.330Z,39.30
2018-07-31T16:21:38.639Z,37.90
2018-07-31T16:24:07.953Z,36.90
2018-07-31T16:26:37.241Z,35.70
2018-07-31T16:29:06.532Z,34.60
2018-07-31T16:31:35.700Z,33.80
2018-07-31T16:34:04.994Z,33.00
2018-07-31T16:36:34.326Z,32.40
2018-07-31T16:39:04.260Z,31.70
2018-07-31T16:41:33.494Z,31.20
2018-07-31T16:44:02.804Z,30.80
2018-07-31T16:46:32.391Z,30.50
2018-07-31T16:49:01.660Z,30.20
2018-07-31T16:51:31.089Z,30.00
2018-07-31T16:54:00.383Z,29.80
2018-07-31T16:56:29.551Z,29.60
2018-07-31T16:58:58.728Z,29.50
2018-07-31T17:01:28.001Z,29.30
2018-07-31T17:03:57.220Z,29.20
2018-07-31T17:06:26.592Z,29.10
2018-07-31T17:08:58.307Z,29.00
2018-07-31T17:11:27.920Z,28.90
2018-07-31T17:13:57.204Z,28.80
2018-07-31T17:16:26.523Z,28.70
2018-07-31T17:18:55.902Z,28.60
2018-07-31T17:21:30.667Z,28.40
2018-07-31T17:24:00.714Z,28.30
2018-07-31T17:26:30.132Z,28.10
2018-07-31T17:29:05.659Z,28.00
2018-07-31T17:31:40.961Z,27.90
2018-07-31T17:34:10.421Z,27.80
2018-07-31T17:36:39.757Z,27.70
2018-07-31T17:39:10.436Z,27.60
2018-07-31T17:41:40.265Z,27.50
2018-07-31T17:44:09.597Z,27.30
2018-07-31T17:46:38.859Z,27.20
2018-07-31T17:49:08.267Z,27.10
2018-07-31T17:51:37.684Z,27.00
2018-07-31T17:54:07.137Z,26.90
2018-07-31T17:56:36.400Z,26.80
2018-07-31T17:59:05.780Z,26.70
2018-07-31T18:01:36.808Z,26.60
2018-07-31T18:04:06.102Z,26.50
2018-07-31T18:06:35.407Z,26.50
2018-07-31T18:09:06.510Z,26.30
2018-07-31T18:11:35.993Z,26.20
2018-07-31T18:14:05.386Z,26.10
2018-07-31T18:16:34.696Z,26.10
2018-07-31T18:19:03.981Z,26.00
2018-07-31T18:21:33.346Z,25.90
2018-07-31T18:24:02.646Z,25.80
2018-07-31T18:26:31.759Z,25.70
2018-07-31T18:29:00.903Z,25.60
2018-07-31T18:31:30.087Z,25.50
2018-07-31T18:33:59.371Z,25.50
2018-07-31T18:36:28.612Z,25.40
2018-07-31T18:38:57.858Z,25.30
2018-07-31T18:41:27.138Z,25.20
2018-07-31T18:43:56.432Z,25.10
2018-07-31T18:46:25.647Z,25.10
2018-07-31T18:48:54.919Z,25.00
2018-07-31T18:51:24.248Z,24.90
2018-07-31T18:53:53.585Z,24.80
2018-07-31T18:56:22.822Z,24.70
2018-07-31T18:58:51.985Z,24.70
2018-07-31T19:01:21.458Z,24.70
2018-07-31T19:03:56.166Z,24.60
2018-07-31T19:06:25.467Z,24.60
2018-07-31T19:08:54.680Z,24.50
2018-07-31T19:11:23.897Z,24.50
2018-07-31T19:13:53.156Z,24.50
2018-07-31T19:16:22.437Z,24.50
2018-07-31T19:21:20.486Z,24.40
2018-07-31T19:23:49.851Z,24.40
2018-07-31T19:26:19.032Z,24.30
2018-07-31T19:28:48.310Z,24.30
2018-07-31T19:31:17.626Z,24.30
2018-07-31T19:33:46.979Z,24.30
2018-07-31T19:36:16.311Z,24.30
2018-07-31T19:38:45.552Z,24.30
2018-07-31T19:41:14.791Z,24.20
2018-07-31T19:43:43.970Z,24.20
2018-07-31T19:46:13.337Z,24.10
2018-07-31T19:48:42.714Z,24.10
2018-07-31T19:51:11.969Z,24.00
2018-07-31T19:53:41.312Z,24.00
2018-07-31T19:56:10.542Z,23.90
2018-07-31T19:58:39.856Z,23.80
2018-07-31T20:01:09.190Z,23.80
2018-07-31T20:03:38.501Z,23.80
2018-07-31T20:06:08.023Z,23.80
2018-07-31T20:08:37.457Z,23.70
2018-07-31T20:11:07.230Z,23.70
2018-07-31T20:13:36.444Z,23.60
2018-07-31T20:16:06.450Z,23.60
2018-07-31T20:18:36.244Z,23.50
2018-07-31T20:21:05.509Z,23.50
2018-07-31T20:23:34.859Z,23.50
2018-07-31T20:26:04.169Z,23.50
2018-07-31T20:28:33.493Z,23.40
2018-07-31T20:33:31.926Z,23.30
2018-07-31T20:36:07.221Z,23.20
2018-07-31T20:38:36.529Z,23.20
2018-07-31T20:41:05.865Z,23.10
2018-07-31T20:43:35.081Z,23.10
2018-07-31T20:46:04.396Z,23.10
2018-07-31T20:48:33.685Z,23.10
2018-07-31T20:51:02.863Z,23.10
2018-07-31T20:53:32.061Z,23.10
2018-07-31T20:56:01.752Z,23.10
2018-07-31T20:58:31.129Z,23.10
2018-07-31T21:01:00.356Z,23.10
2018-07-31T21:03:29.638Z,23.10
2018-07-31T21:05:58.874Z,23.00
2018-07-31T21:08:28.206Z,23.00
2018-07-31T21:10:57.372Z,23.00
2018-07-31T21:13:26.534Z,23.00
2018-07-31T21:15:56.679Z,22.90
2018-07-31T21:18:26.012Z,22.90
2018-07-31T21:20:55.581Z,22.90
2018-07-31T21:23:24.812Z,22.80
2018-07-31T21:25:53.986Z,22.80
2018-07-31T21:28:23.921Z,22.70
2018-07-31T21:30:53.227Z,22.70
2018-07-31T21:33:22.426Z,22.60
2018-07-31T21:35:51.691Z,22.60
2018-07-31T21:38:21.031Z,22.50
2018-07-31T21:40:50.332Z,22.40
2018-07-31T21:43:19.645Z,22.40
2018-07-31T21:45:48.896Z,22.40
2018-07-31T21:48:18.171Z,22.40
2018-07-31T21:50:47.415Z,22.30
2018-07-31T21:53:16.559Z,22.30
2018-07-31T21:55:46.798Z,22.30
2018-07-31T21:58:16.145Z,22.20
2018-07-31T22:00:50.496Z,22.20
2018-07-31T22:03:19.730Z,22.20
2018-07-31T22:05:48.921Z,22.10
2018-07-31T22:08:23.448Z,22.10
2018-07-31T22:10:52.631Z,22.10
2018-07-31T22:13:21.896Z,22.00
2018-07-31T22:15:51.137Z,22.00
2018-07-31T22:18:20.428Z,22.00
2018-07-31T22:20:49.640Z,22.00
2018-07-31T22:23:18.877Z,21.90
2018-07-31T22:25:48.156Z,21.90
2018-07-31T22:28:17.338Z,21.90
2018-07-31T22:30:46.567Z,21.80
2018-07-31T22:33:15.803Z,21.80
2018-07-31T22:35:45.014Z,21.80
2018-07-31T22:38:14.227Z,21.70
2018-07-31T22:40:43.412Z,21.70
2018-07-31T22:43:15.393Z,21.70
2018-07-31T22:45:44.665Z,21.70
2018-07-31T22:48:13.945Z,21.60
2018-07-31T22:50:43.125Z,21.60
2018-07-31T22:53:12.530Z,21.50
2018-07-31T22:55:41.797Z,21.40
2018-07-31T22:58:11.115Z,21.40
2018-07-31T23:00:40.425Z,21.40
2018-07-31T23:03:09.579Z,21.30
2018-07-31T23:05:38.714Z,21.30
2018-07-31T23:08:08.024Z,21.30
2018-07-31T23:10:37.277Z,21.30
2018-07-31T23:13:06.550Z,21.30
2018-07-31T23:15:35.855Z,21.30
2018-07-31T23:18:05.091Z,21.20
2018-07-31T23:20:34.410Z,21.20
2018-07-31T23:23:03.638Z,21.10
2018-07-31T23:25:32.918Z,21.00
2018-07-31T23:28:02.205Z,21.00
2018-07-31T23:33:00.305Z,21.00
2018-07-31T23:35:29.586Z,21.00
2018-07-31T23:38:02.814Z,21.00
2018-07-31T23:40:36.889Z,20.90
2018-07-31T23:43:06.366Z,20.80
2018-07-31T23:45:35.616Z,20.80
2018-07-31T23:48:04.904Z,20.80
2018-07-31T23:50:34.190Z,20.80
2018-07-31T23:53:03.496Z,20.70
2018-07-31T23:55:32.728Z,20.70
2018-07-31T23:58:01.912Z,20.70
